createdAt,value
2019-03-01T00:01:22.592Z,4.58
2019-03-01T00:02:56.899Z,4.70
2019-03-01T00:04:49.423Z,5.72
2019-03-01T00:06:38.831Z,5.97
2019-03-01T00:08:15.809Z,6.92
2019-03-01T00:09:59.223Z,5.85
2019-03-01T00:11:48.572Z,6.25
2019-03-01T00:13:37.446Z,6.90
2019-03-01T00:15:34.679Z,7.22
2019-03-01T00:17:24.162Z,8.65
2019-03-01T00:19:22.254Z,6.83
2019-03-01T00:21:18.175Z,7.42
2019-03-01T00:23:16.454Z,6.92
2019-03-01T00:24:56.428Z,5.67
2019-03-01T00:26:34.089Z,6.70
2019-03-01T00:28:11.336Z,7.15
2019-03-01T00:29:48.664Z,5.80
2019-03-01T00:31:34.372Z,7.12
2019-03-01T00:33:17.683Z,7.00
2019-03-01T00:35:00.555Z,6.30
2019-03-01T00:36:43.924Z,5.87
2019-03-01T00:38:46.800Z,5.40
2019-03-01T00:40:29.802Z,5.95
2019-03-01T00:42:24.779Z,5.97
2019-03-01T00:44:07.988Z,6.37
2019-03-01T00:45:42.354Z,6.15
2019-03-01T00:47:18.728Z,5.60
2019-03-01T00:48:54.466Z,7.05
2019-03-01T00:50:29.171Z,7.12
2019-03-01T00:52:04.217Z,8.33
2019-03-01T00:53:38.633Z,9.03
2019-03-01T00:55:12.996Z,7.10
2019-03-01T00:56:48.033Z,6.30
2019-03-01T00:58:22.365Z,7.65
2019-03-01T00:59:57.019Z,9.00
2019-03-01T01:01:31.279Z,12.78
2019-03-01T01:03:06.068Z,8.68
2019-03-01T01:04:40.390Z,6.75
2019-03-01T01:06:14.716Z,5.42
2019-03-01T01:07:49.986Z,9.50
2019-03-01T01:09:24.894Z,11.20
2019-03-01T01:10:59.174Z,8.15
2019-03-01T01:12:33.593Z,7.08
2019-03-01T01:14:07.901Z,5.90
2019-03-01T01:15:43.047Z,5.78
2019-03-01T01:17:17.424Z,8.40
2019-03-01T01:18:52.088Z,7.47
2019-03-01T01:20:26.401Z,6.47
2019-03-01T01:22:01.338Z,6.60
2019-03-01T01:23:35.617Z,7.70
2019-03-01T01:25:09.937Z,8.83
2019-03-01T01:26:44.350Z,9.05
2019-03-01T01:28:19.147Z,6.20
2019-03-01T01:29:53.447Z,7.35
2019-03-01T01:31:28.063Z,6.55
2019-03-01T01:33:02.334Z,5.58
2019-03-01T01:34:37.010Z,5.40
2019-03-01T01:36:11.318Z,5.83
2019-03-01T01:37:45.564Z,6.70
2019-03-01T01:39:20.455Z,7.65
2019-03-01T01:40:55.156Z,5.60
2019-03-01T01:42:32.323Z,5.92
2019-03-01T01:44:06.698Z,6.25
2019-03-01T01:45:40.979Z,5.95
2019-03-01T01:47:15.594Z,6.30
2019-03-01T01:48:49.916Z,6.25
2019-03-01T01:50:24.254Z,6.10
2019-03-01T01:51:58.531Z,11.25
2019-03-01T01:53:34.777Z,11.68
2019-03-01T01:55:09.207Z,7.90
2019-03-01T01:56:43.426Z,7.50
2019-03-01T01:58:18.056Z,8.30
2019-03-01T01:59:52.683Z,7.53
2019-03-01T02:01:27.289Z,6.65
2019-03-01T02:03:01.588Z,6.53
2019-03-01T02:04:35.857Z,6.78
2019-03-01T02:06:10.486Z,7.78
2019-03-01T02:07:44.772Z,8.20
2019-03-01T02:09:22.005Z,8.63
2019-03-01T02:10:56.700Z,9.80
2019-03-01T02:12:31.280Z,10.20
2019-03-01T02:14:05.531Z,9.05
2019-03-01T02:15:39.770Z,9.13
2019-03-01T02:17:14.088Z,8.35
2019-03-01T02:18:57.290Z,9.20
2019-03-01T02:20:24.779Z,12.43
2019-03-01T02:21:59.011Z,12.47
2019-03-01T02:23:33.301Z,11.75
2019-03-01T02:25:10.717Z,9.63
2019-03-01T02:26:45.058Z,9.83
2019-03-01T02:28:19.321Z,9.33
2019-03-01T02:29:53.756Z,10.10
2019-03-01T02:31:28.493Z,9.93
2019-03-01T02:33:03.273Z,11.15
2019-03-01T02:34:37.480Z,10.20
2019-03-01T02:36:11.877Z,9.55
2019-03-01T02:37:46.692Z,8.80
2019-03-01T02:39:22.762Z,9.13
2019-03-01T02:40:56.984Z,9.80
2019-03-01T02:42:31.297Z,9.65
2019-03-01T02:44:05.963Z,9.13
2019-03-01T02:45:40.251Z,9.30
2019-03-01T02:47:16.007Z,9.38
2019-03-01T02:48:50.812Z,9.28
2019-03-01T02:50:26.768Z,8.63
2019-03-01T02:52:01.113Z,9.88
2019-03-01T02:53:35.491Z,10.58
2019-03-01T02:55:15.206Z,14.80
2019-03-01T02:56:50.044Z,15.95
2019-03-01T02:58:24.264Z,12.93
2019-03-01T02:59:58.559Z,13.70
2019-03-01T03:01:32.933Z,13.08
2019-03-01T03:03:07.535Z,13.43
2019-03-01T03:04:41.828Z,13.90
2019-03-01T03:06:26.654Z,14.85
2019-03-01T03:08:03.111Z,14.53
2019-03-01T03:09:38.050Z,10.28
2019-03-01T03:11:12.481Z,12.47
2019-03-01T03:12:48.341Z,11.53
2019-03-01T03:14:22.687Z,10.20
2019-03-01T03:15:57.456Z,10.13
2019-03-01T03:17:31.725Z,10.25
2019-03-01T03:19:06.035Z,11.57
2019-03-01T03:20:40.288Z,7.47
2019-03-01T03:22:15.122Z,7.85
2019-03-01T03:23:49.480Z,7.92
2019-03-01T03:25:23.822Z,7.50
2019-03-01T03:26:58.123Z,7.75
2019-03-01T03:28:32.956Z,6.62
2019-03-01T03:30:12.769Z,6.37
2019-03-01T03:31:47.170Z,6.40
2019-03-01T03:33:21.446Z,7.87
2019-03-01T03:34:56.343Z,8.45
2019-03-01T03:36:30.650Z,7.97
2019-03-01T03:38:05.017Z,7.40
2019-03-01T03:39:39.290Z,7.60
2019-03-01T03:41:15.782Z,8.73
2019-03-01T03:42:52.221Z,8.00
2019-03-01T03:44:26.536Z,8.70
2019-03-01T03:46:00.823Z,9.45
2019-03-01T03:47:35.461Z,8.08
2019-03-01T03:49:09.689Z,8.95
2019-03-01T03:50:43.982Z,7.95
2019-03-01T03:52:18.360Z,8.13
2019-03-01T03:53:53.024Z,8.18
2019-03-01T03:55:27.546Z,8.18
2019-03-01T03:57:01.855Z,8.28
2019-03-01T03:58:36.210Z,7.90
2019-03-01T04:00:24.563Z,8.18
2019-03-01T04:01:58.924Z,7.60
2019-03-01T04:03:33.214Z,8.33
2019-03-01T04:05:08.545Z,8.18
2019-03-01T04:06:43.266Z,8.40
2019-03-01T04:08:17.554Z,10.05
2019-03-01T04:09:51.775Z,9.38
2019-03-01T04:11:26.168Z,10.45
2019-03-01T04:13:00.831Z,9.18
2019-03-01T04:14:35.158Z,10.75
2019-03-01T04:16:09.472Z,8.90
2019-03-01T04:17:43.782Z,7.97
2019-03-01T04:19:18.648Z,8.83
2019-03-01T04:20:53.083Z,8.58
2019-03-01T04:22:27.403Z,8.30
2019-03-01T04:24:01.743Z,8.25
2019-03-01T04:25:36.608Z,9.88
2019-03-01T04:27:10.901Z,8.70
2019-03-01T04:28:45.179Z,9.43
2019-03-01T04:30:19.530Z,8.15
2019-03-01T04:31:54.204Z,9.33
2019-03-01T04:33:28.505Z,9.70
2019-03-01T04:35:02.805Z,10.72
2019-03-01T04:36:37.504Z,9.00
2019-03-01T04:38:12.226Z,9.93
2019-03-01T04:39:46.577Z,9.55
2019-03-01T04:41:20.949Z,9.18
2019-03-01T04:42:55.284Z,9.98
2019-03-01T04:44:29.791Z,11.43
2019-03-01T04:46:04.069Z,9.73
2019-03-01T04:47:38.406Z,9.80
2019-03-01T04:49:12.708Z,9.23
2019-03-01T04:50:47.432Z,8.83
2019-03-01T04:52:32.619Z,9.88
2019-03-01T04:54:06.969Z,10.53
2019-03-01T04:55:41.256Z,13.65
2019-03-01T04:57:15.681Z,11.33
2019-03-01T04:58:49.973Z,10.50
2019-03-01T05:00:25.641Z,11.22
2019-03-01T05:01:59.903Z,9.55
2019-03-01T05:03:34.531Z,10.35
2019-03-01T05:05:08.846Z,11.85
2019-03-01T05:06:43.133Z,10.90
2019-03-01T05:08:18.320Z,13.72
2019-03-01T05:09:53.073Z,14.47
2019-03-01T05:11:27.438Z,12.37
2019-03-01T05:13:01.799Z,10.30
2019-03-01T05:14:36.121Z,11.68
2019-03-01T05:16:10.741Z,9.90
2019-03-01T05:17:45.032Z,10.20
2019-03-01T05:19:19.340Z,10.50
2019-03-01T05:20:53.681Z,11.65
2019-03-01T05:22:28.862Z,12.00
2019-03-01T05:24:03.066Z,10.40
2019-03-01T05:25:37.378Z,10.48
2019-03-01T05:27:11.685Z,10.58
2019-03-01T05:28:46.246Z,11.65
2019-03-01T05:30:20.638Z,12.25
2019-03-01T05:31:54.997Z,11.57
2019-03-01T05:33:29.285Z,11.22
2019-03-01T05:35:04.021Z,11.50
2019-03-01T05:36:38.318Z,11.08
2019-03-01T05:38:21.324Z,11.90
2019-03-01T05:39:50.696Z,12.37
2019-03-01T05:41:25.272Z,10.98
2019-03-01T05:42:59.500Z,11.53
2019-03-01T05:44:33.811Z,10.48
2019-03-01T05:46:08.042Z,12.78
2019-03-01T05:47:42.791Z,11.48
2019-03-01T05:49:17.154Z,12.30
2019-03-01T05:50:51.436Z,10.72
2019-03-01T05:52:25.718Z,12.10
2019-03-01T05:54:00.295Z,12.18
2019-03-01T05:55:34.589Z,12.53
2019-03-01T05:57:08.881Z,12.70
2019-03-01T05:58:43.157Z,14.05
2019-03-01T06:00:18.133Z,13.15
2019-03-01T06:02:18.498Z,13.50
2019-03-01T06:04:10.810Z,12.82
2019-03-01T06:05:45.793Z,12.65
2019-03-01T06:07:45.290Z,13.28
2019-03-01T06:09:46.946Z,12.53
2019-03-01T06:11:31.111Z,12.68
2019-03-01T06:13:17.199Z,12.13
2019-03-01T06:15:15.804Z,12.70
2019-03-01T06:16:58.857Z,13.60
2019-03-01T06:18:52.645Z,14.07
2019-03-01T06:20:55.840Z,14.28
2019-03-01T06:22:42.227Z,15.18
2019-03-01T06:24:40.307Z,15.75
2019-03-01T06:26:29.491Z,13.70
2019-03-01T06:28:23.284Z,13.68
2019-03-01T06:30:00.546Z,14.35
2019-03-01T06:31:43.847Z,15.78
2019-03-01T06:33:40.363Z,14.10
2019-03-01T06:35:20.316Z,13.18
2019-03-01T06:37:23.584Z,14.38
2019-03-01T06:39:17.352Z,13.15
2019-03-01T06:41:19.747Z,13.15
2019-03-01T06:43:13.442Z,13.88
2019-03-01T06:45:15.042Z,14.45
2019-03-01T06:47:17.593Z,16.02
2019-03-01T06:48:53.481Z,20.27
2019-03-01T06:50:35.239Z,16.05
2019-03-01T06:52:09.573Z,15.40
2019-03-01T06:53:43.865Z,15.30
2019-03-01T06:55:29.912Z,17.00
2019-03-01T06:57:04.292Z,15.60
2019-03-01T06:58:38.607Z,15.48
2019-03-01T07:00:12.967Z,15.65
2019-03-01T07:01:47.537Z,16.05
2019-03-01T07:03:22.799Z,16.62
2019-03-01T07:04:57.029Z,18.45
2019-03-01T07:06:31.333Z,15.65
2019-03-01T07:08:05.607Z,16.10
2019-03-01T07:09:42.439Z,17.67
2019-03-01T07:11:16.419Z,16.12
2019-03-01T07:12:50.671Z,16.45
2019-03-01T07:14:24.974Z,18.05
2019-03-01T07:15:59.404Z,15.95
2019-03-01T07:17:33.735Z,15.35
2019-03-01T07:19:08.005Z,16.93
2019-03-01T07:20:42.329Z,17.67
2019-03-01T07:22:16.916Z,18.23
2019-03-01T07:23:51.164Z,17.52
2019-03-01T07:25:25.597Z,18.00
2019-03-01T07:27:00.487Z,18.92
2019-03-01T07:28:34.899Z,17.85
2019-03-01T07:30:11.662Z,17.15
2019-03-01T07:31:45.955Z,17.07
2019-03-01T07:33:20.259Z,17.25
2019-03-01T07:34:54.903Z,17.40
2019-03-01T07:36:29.297Z,18.32
2019-03-01T07:38:03.636Z,18.65
2019-03-01T07:39:37.945Z,16.60
2019-03-01T07:41:13.056Z,17.65
2019-03-01T07:42:47.405Z,18.05
2019-03-01T07:44:21.787Z,19.67
2019-03-01T07:45:56.867Z,19.77
2019-03-01T07:47:31.422Z,16.75
2019-03-01T07:49:05.731Z,18.73
2019-03-01T07:50:40.031Z,17.23
2019-03-01T07:52:14.389Z,19.15
2019-03-01T07:53:49.149Z,17.80
2019-03-01T07:55:25.021Z,17.57
2019-03-01T07:56:59.453Z,17.77
2019-03-01T07:58:33.716Z,17.55
2019-03-01T08:00:16.362Z,18.50
2019-03-01T08:01:50.674Z,18.15
2019-03-01T08:03:25.094Z,17.62
2019-03-01T08:05:00.122Z,18.57
2019-03-01T08:06:36.179Z,17.15
2019-03-01T08:08:10.512Z,19.07
2019-03-01T08:09:45.709Z,19.23
2019-03-01T08:11:20.230Z,17.87
2019-03-01T08:12:55.113Z,19.82
2019-03-01T08:14:31.562Z,18.40
2019-03-01T08:16:05.338Z,18.62
2019-03-01T08:17:39.702Z,18.75
2019-03-01T08:19:16.121Z,20.90
2019-03-01T08:20:52.216Z,20.62
2019-03-01T08:22:26.541Z,19.37
2019-03-01T08:24:03.971Z,19.10
2019-03-01T08:25:39.381Z,16.57
2019-03-01T08:27:13.631Z,19.45
2019-03-01T08:28:48.379Z,17.05
2019-03-01T08:30:22.699Z,18.95
2019-03-01T08:31:57.308Z,17.95
2019-03-01T08:33:31.603Z,20.80
2019-03-01T08:35:09.091Z,19.95
2019-03-01T08:36:43.670Z,17.15
2019-03-01T08:38:18.449Z,19.52
2019-03-01T08:39:52.701Z,20.00
2019-03-01T08:41:27.028Z,17.70
2019-03-01T08:43:01.358Z,19.15
2019-03-01T08:44:36.023Z,18.80
2019-03-01T08:46:11.508Z,19.25
2019-03-01T08:47:45.742Z,17.98
2019-03-01T08:49:20.041Z,18.00
2019-03-01T08:50:54.672Z,18.82
2019-03-01T08:52:28.964Z,19.92
2019-03-01T08:54:03.304Z,20.80
2019-03-01T08:55:38.923Z,19.80
2019-03-01T08:57:13.756Z,19.37
2019-03-01T08:58:48.062Z,18.90
2019-03-01T09:00:28.145Z,17.55
2019-03-01T09:02:02.833Z,16.10
2019-03-01T09:03:46.020Z,18.25
2019-03-01T09:05:20.395Z,18.35
2019-03-01T09:06:54.675Z,16.85
2019-03-01T09:08:29.010Z,17.87
2019-03-01T09:10:03.452Z,17.77
2019-03-01T09:11:37.752Z,18.40
2019-03-01T09:13:12.100Z,18.05
2019-03-01T09:14:46.518Z,16.32
2019-03-01T09:16:20.927Z,17.57
2019-03-01T09:17:55.225Z,16.77
2019-03-01T09:19:29.578Z,14.83
2019-03-01T09:21:05.827Z,14.87
2019-03-01T09:22:40.019Z,17.77
2019-03-01T09:24:14.357Z,15.90
2019-03-01T09:25:49.819Z,16.97
2019-03-01T09:27:26.788Z,14.83
2019-03-01T09:29:00.359Z,16.05
2019-03-01T09:30:34.718Z,16.35
2019-03-01T09:32:09.082Z,14.18
2019-03-01T09:33:43.376Z,14.70
2019-03-01T09:35:24.588Z,14.83
2019-03-01T09:36:59.004Z,14.13
2019-03-01T09:38:33.321Z,14.83
2019-03-01T09:40:07.731Z,14.35
2019-03-01T09:41:42.324Z,13.80
2019-03-01T09:43:16.696Z,14.38
2019-03-01T09:44:51.046Z,12.53
2019-03-01T09:46:28.157Z,14.33
2019-03-01T09:48:01.547Z,13.80
2019-03-01T09:49:35.947Z,14.30
2019-03-01T09:51:10.687Z,13.38
2019-03-01T09:52:46.737Z,13.48
2019-03-01T09:54:21.727Z,13.15
2019-03-01T09:55:56.027Z,14.75
2019-03-01T09:57:30.355Z,12.93
2019-03-01T09:59:04.803Z,11.48
2019-03-01T10:00:45.140Z,12.25
2019-03-01T10:02:19.542Z,14.47
2019-03-01T10:03:53.873Z,13.58
2019-03-01T10:05:28.089Z,13.95
2019-03-01T10:07:02.545Z,14.13
2019-03-01T10:08:36.941Z,13.58
2019-03-01T10:10:13.965Z,15.35
2019-03-01T10:11:48.325Z,14.23
2019-03-01T10:13:23.038Z,13.60
2019-03-01T10:14:57.313Z,13.28
2019-03-01T10:16:31.520Z,14.00
2019-03-01T10:18:05.905Z,14.35
2019-03-01T10:19:40.423Z,11.73
2019-03-01T10:21:14.730Z,11.45
2019-03-01T10:22:48.957Z,11.05
2019-03-01T10:24:23.223Z,11.35
2019-03-01T10:25:57.680Z,11.53
2019-03-01T10:27:31.982Z,11.40
2019-03-01T10:29:06.327Z,10.40
2019-03-01T10:30:40.629Z,9.83
2019-03-01T10:32:15.215Z,10.18
2019-03-01T10:33:49.432Z,9.58
2019-03-01T10:35:23.663Z,10.45
2019-03-01T10:36:57.921Z,9.60
2019-03-01T10:38:32.458Z,10.08
2019-03-01T10:40:09.984Z,10.35
2019-03-01T10:41:44.261Z,7.92
2019-03-01T10:43:18.527Z,11.15
2019-03-01T10:44:53.949Z,12.75
2019-03-01T10:46:28.220Z,11.18
2019-03-01T10:48:02.675Z,11.93
2019-03-01T10:49:37.030Z,14.13
2019-03-01T10:51:11.662Z,15.50
2019-03-01T10:52:45.954Z,16.70
2019-03-01T10:54:22.492Z,16.10
2019-03-01T10:55:56.971Z,14.58
2019-03-01T10:57:31.686Z,16.25
2019-03-01T10:59:05.914Z,16.65
2019-03-01T11:00:40.576Z,15.48
2019-03-01T11:02:14.882Z,16.60
2019-03-01T11:03:49.635Z,14.75
2019-03-01T11:05:24.474Z,16.10
2019-03-01T11:06:58.673Z,17.70
2019-03-01T11:08:33.016Z,16.77
2019-03-01T11:10:23.213Z,16.70
2019-03-01T11:11:57.522Z,17.35
2019-03-01T11:13:31.744Z,18.70
2019-03-01T11:15:09.195Z,18.77
2019-03-01T11:16:43.697Z,20.52
2019-03-01T11:18:18.023Z,19.85
2019-03-01T11:19:52.384Z,19.32
2019-03-01T11:21:26.718Z,20.10
2019-03-01T11:23:01.340Z,19.02
2019-03-01T11:24:35.546Z,20.57
2019-03-01T11:26:09.890Z,19.80
2019-03-01T11:27:45.281Z,20.82
2019-03-01T11:29:19.710Z,22.22
2019-03-01T11:30:54.049Z,19.12
2019-03-01T11:32:28.427Z,22.05
2019-03-01T11:34:02.744Z,22.80
2019-03-01T11:35:37.359Z,24.27
2019-03-01T11:37:11.667Z,24.77
2019-03-01T11:38:45.983Z,23.20
2019-03-01T11:40:25.760Z,22.37
2019-03-01T11:42:00.332Z,24.07
2019-03-01T11:43:34.655Z,18.40
2019-03-01T11:45:11.173Z,19.07
2019-03-01T11:46:46.956Z,18.95
2019-03-01T11:48:21.690Z,19.45
2019-03-01T11:49:56.097Z,20.10
2019-03-01T11:51:30.413Z,20.08
2019-03-01T11:53:04.734Z,17.87
2019-03-01T11:54:39.317Z,17.82
2019-03-01T11:56:13.607Z,20.05
2019-03-01T11:57:47.944Z,18.60
2019-03-01T11:59:22.248Z,16.15
2019-03-01T12:00:56.890Z,17.00
2019-03-01T12:02:31.129Z,21.12
2019-03-01T12:04:05.653Z,19.73
2019-03-01T12:05:39.881Z,16.73
2019-03-01T12:07:14.532Z,14.40
2019-03-01T12:08:48.833Z,16.75
2019-03-01T12:10:32.529Z,18.62
2019-03-01T12:12:06.829Z,19.17
2019-03-01T12:13:41.378Z,17.98
2019-03-01T12:15:15.767Z,17.35
2019-03-01T12:16:50.061Z,17.00
2019-03-01T12:18:24.350Z,16.25
2019-03-01T12:19:59.046Z,15.70
2019-03-01T12:21:33.278Z,16.48
2019-03-01T12:23:07.575Z,18.60
2019-03-01T12:24:41.826Z,20.10
2019-03-01T12:26:16.483Z,19.85
2019-03-01T12:27:50.727Z,18.10
2019-03-01T12:29:25.061Z,19.95
2019-03-01T12:30:59.356Z,17.35
2019-03-01T12:32:34.160Z,19.85
2019-03-01T12:34:08.445Z,16.87
2019-03-01T12:35:42.790Z,20.25
2019-03-01T12:37:17.050Z,20.77
2019-03-01T12:38:51.696Z,21.85
2019-03-01T12:40:28.333Z,19.87
2019-03-01T12:42:02.575Z,19.98
2019-03-01T12:43:36.864Z,19.75
2019-03-01T12:45:13.985Z,20.43
2019-03-01T12:46:49.402Z,19.40
2019-03-01T12:48:23.686Z,18.60
2019-03-01T12:50:00.063Z,18.45
2019-03-01T12:51:34.444Z,18.42
2019-03-01T12:53:08.759Z,19.55
2019-03-01T12:54:43.126Z,19.35
2019-03-01T12:56:17.398Z,17.67
2019-03-01T12:57:51.927Z,17.45
2019-03-01T12:59:26.145Z,16.93
2019-03-01T13:01:00.360Z,17.98
2019-03-01T13:02:34.945Z,18.82
2019-03-01T13:04:10.412Z,20.55
2019-03-01T13:05:44.806Z,19.32
2019-03-01T13:07:19.094Z,17.55
2019-03-01T13:08:53.416Z,19.10
2019-03-01T13:10:36.755Z,18.87
2019-03-01T13:12:11.298Z,19.20
2019-03-01T13:13:45.575Z,22.70
2019-03-01T13:15:19.887Z,22.00
2019-03-01T13:16:54.523Z,19.70
2019-03-01T13:18:28.808Z,21.27
2019-03-01T13:20:03.864Z,19.17
2019-03-01T13:21:38.424Z,17.37
2019-03-01T13:23:12.997Z,17.02
2019-03-01T13:24:50.304Z,16.15
2019-03-01T13:26:23.093Z,15.90
2019-03-01T13:27:57.489Z,17.77
2019-03-01T13:29:32.197Z,19.15
2019-03-01T13:31:08.222Z,18.90
2019-03-01T13:32:42.494Z,18.77
2019-03-01T13:34:16.757Z,21.35
2019-03-01T13:35:51.353Z,18.87
2019-03-01T13:37:25.781Z,19.17
2019-03-01T13:39:00.071Z,18.55
2019-03-01T13:40:34.324Z,20.80
2019-03-01T13:42:10.331Z,20.40
2019-03-01T13:43:45.192Z,21.00
2019-03-01T13:45:20.730Z,23.20
2019-03-01T13:46:55.011Z,24.40
2019-03-01T13:48:29.443Z,22.90
2019-03-01T13:50:06.772Z,19.90
2019-03-01T13:51:40.455Z,18.87
2019-03-01T13:53:15.052Z,22.32
2019-03-01T13:54:49.468Z,22.27
2019-03-01T13:56:23.705Z,23.20
2019-03-01T13:57:58.009Z,19.98
2019-03-01T13:59:32.285Z,19.67
2019-03-01T14:01:06.967Z,20.68
2019-03-01T14:02:43.063Z,22.15
2019-03-01T14:04:17.161Z,22.62
2019-03-01T14:05:54.857Z,26.55
2019-03-01T14:07:27.722Z,32.55
2019-03-01T14:09:02.190Z,21.00
2019-03-01T14:10:38.498Z,21.60
2019-03-01T14:12:12.353Z,25.23
2019-03-01T14:13:47.795Z,26.73
2019-03-01T14:15:22.840Z,22.77
2019-03-01T14:16:57.086Z,24.90
2019-03-01T14:18:33.314Z,22.00
2019-03-01T14:20:18.994Z,21.52
2019-03-01T14:21:51.330Z,24.95
2019-03-01T14:23:25.993Z,30.48
2019-03-01T14:25:02.539Z,39.23
2019-03-01T14:26:36.499Z,36.28
2019-03-01T14:28:10.748Z,108.00
2019-03-01T14:29:45.001Z,36.73
2019-03-01T14:31:19.337Z,70.97
2019-03-01T14:32:56.855Z,75.55
2019-03-01T14:34:29.717Z,46.33
2019-03-01T14:36:04.010Z,38.63
2019-03-01T14:37:38.296Z,19.40
2019-03-01T14:39:17.182Z,21.12
2019-03-01T14:40:51.419Z,23.42
2019-03-01T14:42:25.703Z,20.40
2019-03-01T14:43:59.994Z,19.48
2019-03-01T14:45:35.672Z,19.05
2019-03-01T14:47:09.917Z,19.52
2019-03-01T14:48:46.179Z,19.75
2019-03-01T14:50:22.355Z,16.95
2019-03-01T14:51:56.990Z,18.00
2019-03-01T14:53:34.694Z,16.70
2019-03-01T14:55:19.845Z,17.60
2019-03-01T14:56:55.772Z,19.02
2019-03-01T14:58:35.966Z,17.30
2019-03-01T15:00:14.258Z,16.30
2019-03-01T15:01:51.419Z,18.70
2019-03-01T15:59:44.347Z,32.30
2019-03-01T16:01:16.866Z,30.55
2019-03-01T16:02:53.354Z,30.97
2019-03-01T16:04:30.487Z,31.57
2019-03-01T16:06:03.216Z,33.45
2019-03-01T16:07:37.448Z,31.12
2019-03-01T16:09:14.807Z,38.10
2019-03-01T16:10:49.035Z,33.67
2019-03-01T16:12:23.756Z,31.85
2019-03-01T16:13:58.058Z,33.75
2019-03-01T16:15:34.962Z,29.20
2019-03-01T16:17:08.279Z,32.03
2019-03-01T16:18:42.733Z,37.08
2019-03-01T16:20:20.988Z,36.35
2019-03-01T16:21:55.243Z,34.15
2019-03-01T16:23:30.257Z,33.90
2019-03-01T16:25:09.377Z,33.98
2019-03-01T16:26:43.671Z,34.48
2019-03-01T16:28:18.062Z,32.78
2019-03-01T16:29:52.349Z,26.40
2019-03-01T16:31:29.016Z,32.38
2019-03-01T16:33:02.847Z,33.48
2019-03-01T16:34:37.631Z,35.52
2019-03-01T16:36:14.782Z,37.93
2019-03-01T16:37:54.025Z,45.92
2019-03-01T16:39:31.380Z,36.38
2019-03-01T16:41:07.743Z,41.08
2019-03-01T16:42:41.596Z,38.40
2019-03-01T16:44:16.292Z,35.88
2019-03-01T16:45:53.325Z,37.93
2019-03-01T16:47:26.458Z,37.63
2019-03-01T16:49:00.769Z,35.92
2019-03-01T16:50:35.270Z,35.78
2019-03-01T16:52:09.608Z,34.33
2019-03-01T16:53:43.797Z,34.53
2019-03-01T16:55:24.491Z,34.98
2019-03-01T16:56:58.968Z,33.60
2019-03-01T16:58:33.320Z,35.52
2019-03-01T17:00:19.381Z,32.83
2019-03-01T17:01:53.912Z,36.03
2019-03-01T17:03:28.316Z,35.78
2019-03-01T17:05:03.691Z,54.00
2019-03-01T17:06:38.653Z,39.78
2019-03-01T17:08:12.962Z,40.95
2019-03-01T17:09:50.962Z,36.13
2019-03-01T17:11:23.465Z,35.78
2019-03-01T17:12:57.812Z,37.28
2019-03-01T17:14:34.883Z,38.58
2019-03-01T17:16:08.521Z,37.83
2019-03-01T17:17:43.714Z,38.40
2019-03-01T17:19:20.542Z,45.25
2019-03-01T17:20:53.885Z,41.53
2019-03-01T17:22:28.332Z,42.38
2019-03-01T17:24:02.651Z,40.15
2019-03-01T17:25:36.879Z,39.92
2019-03-01T17:27:11.229Z,48.52
2019-03-01T17:28:45.868Z,58.50
2019-03-01T17:30:25.209Z,49.15
2019-03-01T17:32:02.017Z,39.27
2019-03-01T17:33:35.590Z,39.95
2019-03-01T17:35:12.182Z,45.60
2019-03-01T17:36:49.967Z,40.73
2019-03-01T17:38:26.276Z,38.67
2019-03-01T17:40:00.232Z,42.93
2019-03-01T17:41:34.666Z,42.33
2019-03-01T17:43:08.951Z,44.08
2019-03-01T17:44:44.554Z,41.23
2019-03-01T17:46:19.647Z,39.53
2019-03-01T17:47:55.391Z,41.53
2019-03-01T17:49:32.922Z,40.20
2019-03-01T17:51:06.026Z,40.48
2019-03-01T17:52:40.335Z,38.85
2019-03-01T17:54:14.928Z,40.15
2019-03-01T17:55:49.268Z,39.70
2019-03-01T17:57:23.646Z,39.03
2019-03-01T17:58:57.865Z,42.53
2019-03-01T18:00:37.974Z,40.43
2019-03-01T18:02:15.115Z,41.58
2019-03-01T18:03:48.394Z,40.83
2019-03-01T18:05:22.612Z,44.13
2019-03-01T18:06:57.208Z,38.35
2019-03-01T18:08:32.465Z,42.23
2019-03-01T18:10:10.188Z,41.23
2019-03-01T18:11:45.459Z,39.48
2019-03-01T18:13:21.886Z,43.38
2019-03-01T18:14:56.160Z,43.10
2019-03-01T18:16:30.695Z,47.58
2019-03-01T18:18:05.453Z,53.55
2019-03-01T18:19:40.307Z,47.48
2019-03-01T18:21:14.539Z,43.42
2019-03-01T18:22:48.787Z,55.90
2019-03-01T18:24:23.071Z,47.33
2019-03-01T18:25:59.604Z,44.38
2019-03-01T18:27:34.963Z,43.58
2019-03-01T18:29:09.281Z,45.80
2019-03-01T18:30:43.643Z,45.75
2019-03-01T18:32:18.236Z,42.88
2019-03-01T18:33:53.734Z,43.20
2019-03-01T18:35:29.061Z,54.45
2019-03-01T18:37:03.755Z,47.55
2019-03-01T18:38:39.706Z,47.03
2019-03-01T18:40:16.899Z,46.13
2019-03-01T18:41:50.530Z,47.08
2019-03-01T18:43:24.770Z,44.65
2019-03-01T18:44:59.200Z,49.90
2019-03-01T18:46:33.416Z,46.95
2019-03-01T18:48:08.781Z,47.65
2019-03-01T18:49:44.230Z,49.60
2019-03-01T18:51:18.766Z,52.50
2019-03-01T18:52:54.279Z,52.67
2019-03-01T18:54:28.558Z,50.35
2019-03-01T18:56:02.885Z,51.73
2019-03-01T18:57:38.664Z,47.35
2019-03-01T18:59:12.887Z,51.83
2019-03-01T19:00:50.077Z,53.90
2019-03-01T19:02:27.498Z,56.33
2019-03-01T19:04:00.354Z,71.02
2019-03-01T19:05:36.632Z,70.47
2019-03-01T19:07:11.232Z,62.30
2019-03-01T19:08:45.529Z,109.52
2019-03-01T19:10:23.967Z,65.35
2019-03-01T19:11:59.337Z,75.95
2019-03-01T19:13:33.561Z,65.55
2019-03-01T19:15:15.634Z,61.83
2019-03-01T19:16:50.277Z,58.23
2019-03-01T19:18:24.511Z,50.48
2019-03-01T19:20:02.054Z,53.42
2019-03-01T19:21:34.686Z,52.93
2019-03-01T19:23:09.286Z,54.93
2019-03-01T19:24:46.830Z,56.63
2019-03-01T19:26:20.805Z,60.90
2019-03-01T19:27:55.119Z,57.78
2019-03-01T19:29:29.669Z,56.35
2019-03-01T19:31:03.956Z,50.35
2019-03-01T19:32:38.255Z,49.30
2019-03-01T19:34:13.076Z,48.15
2019-03-01T19:35:49.080Z,47.83
2019-03-01T19:37:23.405Z,46.23
2019-03-01T19:39:00.363Z,44.00
2019-03-01T19:40:35.957Z,45.20
2019-03-01T19:42:10.722Z,45.33
2019-03-01T19:43:50.042Z,43.85
2019-03-01T19:45:20.930Z,49.65
2019-03-01T19:46:55.164Z,49.50
2019-03-01T19:48:29.819Z,50.38
2019-03-01T19:50:04.745Z,50.88
2019-03-01T19:51:38.963Z,49.75
2019-03-01T19:53:13.203Z,45.60
2019-03-01T19:54:47.573Z,44.63
2019-03-01T19:56:25.766Z,45.92
2019-03-01T19:57:58.093Z,46.23
2019-03-01T19:59:32.443Z,46.33
2019-03-01T20:01:06.977Z,48.90
2019-03-01T20:02:42.182Z,49.95
2019-03-01T20:04:17.722Z,51.23
2019-03-01T20:05:52.411Z,52.78
2019-03-01T20:07:26.989Z,50.65
2019-03-01T20:09:01.633Z,49.65
2019-03-01T20:10:38.048Z,60.65
2019-03-01T20:12:12.337Z,53.15
2019-03-01T20:13:46.766Z,55.90
2019-03-01T20:15:23.853Z,56.33
2019-03-01T20:16:58.939Z,61.68
2019-03-01T20:18:33.223Z,60.52
2019-03-01T20:20:13.756Z,59.53
2019-03-01T20:21:48.417Z,60.88
2019-03-01T20:23:23.235Z,57.83
2019-03-01T20:24:57.561Z,60.43
2019-03-01T20:26:31.963Z,60.08
2019-03-01T20:28:06.206Z,76.97
2019-03-01T20:29:40.479Z,92.70
2019-03-01T20:31:14.732Z,93.95
2019-03-01T20:32:51.212Z,89.80
2019-03-01T20:34:25.562Z,86.32
2019-03-01T20:35:59.904Z,88.97
2019-03-01T20:37:34.207Z,91.37
2019-03-01T20:39:11.688Z,93.55
2019-03-01T20:40:44.900Z,95.80
2019-03-01T20:42:23.584Z,98.40
2019-03-01T20:43:55.149Z,99.07
2019-03-01T20:45:31.652Z,99.65
2019-03-01T20:47:05.859Z,97.08
2019-03-01T20:48:40.094Z,81.82
2019-03-01T20:50:15.634Z,93.10
2019-03-01T20:51:52.307Z,81.22
2019-03-01T20:53:26.246Z,74.65
2019-03-01T20:55:00.894Z,73.00
2019-03-01T20:56:36.127Z,68.45
2019-03-01T20:58:10.924Z,66.90
2019-03-01T20:59:46.775Z,62.65
2019-03-01T21:01:21.096Z,66.85
2019-03-01T21:02:55.440Z,65.40
2019-03-01T21:04:30.010Z,88.65
2019-03-01T21:06:04.664Z,101.78
2019-03-01T21:07:40.471Z,79.42
2019-03-01T21:09:14.691Z,65.30
2019-03-01T21:10:50.057Z,68.37
2019-03-01T21:12:25.119Z,63.90
2019-03-01T21:13:59.385Z,59.88
2019-03-01T21:15:34.573Z,61.18
2019-03-01T21:17:09.804Z,60.38
2019-03-01T21:18:45.210Z,60.03
2019-03-01T21:20:20.884Z,65.45
2019-03-01T21:21:55.488Z,53.92
2019-03-01T21:23:30.039Z,47.23
2019-03-01T21:25:06.674Z,48.98
2019-03-01T21:26:40.951Z,59.50
2019-03-01T21:28:15.189Z,51.20
2019-03-01T21:29:49.734Z,55.05
2019-03-01T21:31:24.062Z,60.10
2019-03-01T21:32:58.390Z,56.98
2019-03-01T21:34:34.904Z,54.25
2019-03-01T21:36:08.930Z,50.78
2019-03-01T21:37:43.292Z,59.80
2019-03-01T21:39:20.652Z,65.67
2019-03-01T21:40:53.643Z,56.90